Time;durP1;ratioP1;P1;durP2;ratioP2;P2;SDS_P1;SDS_P2;PMS_P1;PMS_P2;Temp;Humidity;BMP_temperature;BMP_pressure;BME280_temperature;BME280_humidity;BME280_pressure;Samples;Min_cycle;Max_cycle;Signal;HPM_P1;HPM_P2
2023/02/23 00:01:21;;;;;;;64.65;48.22;;;;;;;7.09;100.00;101111.50;5072570;28;20047;-77
2023/02/23 00:03:50;;;;;;;67.18;48.97;;;;;;;7.09;100.00;101107.94;5072629;28;20025;-77
2023/02/23 00:06:17;;;;;;;67.72;48.55;;;;;;;7.08;100.00;101109.69;5072628;28;20028;-76
2023/02/23 00:08:43;;;;;;;66.65;47.90;;;;;;;7.08;100.00;101112.34;5054744;28;20115;-77
2023/02/23 00:11:11;;;;;;;68.57;47.95;;;;;;;7.04;100.00;101109.59;5072516;28;20483;-77
2023/02/23 00:13:37;;;;;;;69.95;49.72;;;;;;;7.05;100.00;101109.63;5072680;28;20464;-77
2023/02/23 00:16:07;;;;;;;66.60;47.50;;;;;;;7.06;100.00;101110.50;5072184;28;20423;-77
2023/02/23 00:18:43;;;;;;;74.03;51.05;;;;;;;7.06;100.00;101110.50;5072345;28;20095;-77
2023/02/23 00:21:20;;;;;;;68.32;48.28;;;;;;;7.04;100.00;101106.97;5072334;28;20158;-77
2023/02/23 00:23:50;;;;;;;71.43;50.17;;;;;;;7.04;100.00;101113.09;5072609;28;20580;-79
2023/02/23 00:26:19;;;;;;;69.07;48.70;;;;;;;7.03;100.00;101107.81;5071258;28;20414;-80
2023/02/23 00:28:46;;;;;;;72.47;50.42;;;;;;;7.03;100.00;101111.31;5072226;28;20425;-80
2023/02/23 00:31:11;;;;;;;68.38;48.85;;;;;;;7.04;100.00;101106.97;5072219;28;20117;-79
2023/02/23 00:33:38;;;;;;;71.10;50.33;;;;;;;7.04;100.00;101113.09;5072525;28;20071;-80
2023/02/23 00:36:09;;;;;;;73.15;49.50;;;;;;;7.06;100.00;101110.50;5071986;28;20490;-79
2023/02/23 00:38:36;;;;;;;69.82;49.75;;;;;;;7.06;100.00;101108.78;5072100;28;20036;-79
2023/02/23 00:41:10;;;;;;;72.63;50.15;;;;;;;7.07;100.00;101107.91;5072383;28;20443;-80
2023/02/23 00:43:38;;;;;;;69.75;49.33;;;;;;;7.06;100.00;101103.53;5072124;28;20028;-80
2023/02/23 00:46:05;;;;;;;73.43;51.40;;;;;;;7.07;100.00;101109.66;5072157;28;20036;-80
2023/02/23 00:48:32;;;;;;;72.57;50.58;;;;;;;7.04;100.00;101105.22;5072274;28;20037;-79
2023/02/23 00:51:02;;;;;;;70.70;50.38;;;;;;;7.04;100.00;101102.59;5070796;28;20391;-79
2023/02/23 00:53:28;;;;;;;76.45;51.78;;;;;;;7.02;100.00;101103.41;5072107;28;20490;-79
2023/02/23 00:55:55;;;;;;;75.20;52.58;;;;;;;6.98;100.00;101103.34;5072112;28;20112;-80
2023/02/23 00:58:21;;;;;;;78.28;52.13;;;;;;;6.97;100.00;101108.56;5054328;28;20071;-80
2023/02/23 01:00:46;;;;;;;78.43;50.67;;;;;;;6.96;100.00;101106.78;5072294;28;20032;-80
2023/02/23 01:03:11;;;;;;;84.85;53.22;;;;;;;6.92;100.00;101108.47;5074704;28;20074;-80
2023/02/23 01:05:37;;;;;;;83.57;53.00;;;;;;;6.95;100.00;101102.41;5075600;28;20040;-77
2023/02/23 01:08:03;;;;;;;81.82;51.92;;;;;;;6.94;100.00;101109.38;5075875;28;20024;-76
2023/02/23 01:10:28;;;;;;;88.63;54.97;;;;;;;6.92;100.00;101107.59;5075827;28;20099;-77
2023/02/23 01:12:54;;;;;;;85.88;54.72;;;;;;;6.90;100.00;101110.19;5075600;28;20174;-77
2023/02/23 01:15:20;;;;;;;83.90;53.80;;;;;;;6.92;100.00;101105.84;5074229;28;20042;-76
2023/02/23 01:17:45;;;;;;;89.75;53.35;;;;;;;6.92;100.00;101116.34;5075458;28;20047;-77
2023/02/23 01:20:16;;;;;;;85.97;52.45;;;;;;;6.93;100.00;101112.88;5075366;28;20029;-77
2023/02/23 01:22:42;;;;;;;85.75;50.47;;;;;;;6.89;100.00;101107.50;5075374;28;20025;-77
2023/02/23 01:25:08;;;;;;;82.35;50.50;;;;;;;6.92;100.00;101105.84;5075503;28;20047;-76
2023/02/23 01:27:34;;;;;;;83.55;50.00;;;;;;;6.91;100.00;101111.94;5075242;28;20033;-77
2023/02/23 01:30:00;;;;;;;81.22;48.60;;;;;;;6.88;100.00;101110.97;5074003;28;20103;-77
2023/02/23 01:32:25;;;;;;;79.30;48.60;;;;;;;6.89;100.00;101108.41;5075459;28;20074;-77
2023/02/23 01:34:51;;;;;;;80.90;49.00;;;;;;;6.87;100.00;101107.44;5075444;28;20086;-77
2023/02/23 01:37:16;;;;;;;85.28;48.92;;;;;;;6.83;100.00;101116.13;5075108;28;19920;-77
2023/02/23 01:39:41;;;;;;;79.95;47.85;;;;;;;6.84;100.00;101110.00;5075233;28;20487;-77
2023/02/23 01:42:13;;;;;;;78.85;46.75;;;;;;;6.82;100.00;101118.72;5074999;28;20494;-77
2023/02/23 01:44:38;;;;;;;83.47;48.92;;;;;;;6.80;100.00;101113.41;5075075;28;20390;-77
2023/02/23 01:47:04;;;;;;;79.03;48.40;;;;;;;6.79;100.00;101112.53;5073856;28;20032;-77
2023/02/23 01:49:33;;;;;;;78.85;46.53;;;;;;;6.78;100.00;101125.63;5074913;28;20028;-77
2023/02/23 01:52:12;;;;;;;79.15;47.15;;;;;;;6.79;100.00;101122.16;5073590;28;20028;-77
2023/02/23 01:54:49;;;;;;;86.55;47.47;;;;;;;6.80;100.00;101119.56;5074817;28;20012;-77
2023/02/23 01:57:16;;;;;;;83.45;48.60;;;;;;;6.82;100.00;101124.00;5074951;28;20118;-77
2023/02/23 01:59:44;;;;;;;83.70;48.58;;;;;;;6.81;100.00;101120.44;5074742;28;20422;-77
2023/02/23 02:02:12;;;;;;;84.95;48.00;;;;;;;6.78;100.00;101120.38;5074619;28;20025;-77
2023/02/23 02:04:46;;;;;;;84.65;49.47;;;;;;;6.75;100.00;101120.31;5074848;28;20029;-77
2023/02/23 02:07:14;;;;;;;84.32;48.05;;;;;;;6.75;100.00;101121.19;5074635;28;20020;-77
2023/02/23 02:10:16;;;;;;;86.10;49.28;;;;;;;6.69;100.00;101128.94;5074527;28;20439;-77
2023/02/23 02:12:27;;;;;;;90.10;49.28;;;;;;;6.72;100.00;101134.25;5071085;28;20361;-77
2023/02/23 02:14:54;;;;;;;85.18;48.50;;;;;;;6.69;100.00;101134.19;5074277;28;20361;-81
2023/02/23 02:17:28;;;;;;;88.30;48.63;;;;;;;6.67;100.00;101130.63;5074441;28;20115;-83
2023/02/23 02:20:13;;;;;;;85.97;48.83;;;;;;;6.70;100.00;101132.44;5070541;28;20043;-79
2023/02/23 02:23:20;;;;;;;83.20;47.30;;;;;;;6.69;100.00;101130.69;5072628;28;20047;-80
2023/02/23 02:26:19;;;;;;;83.53;45.90;;;;;;;6.67;100.00;101128.00;5060081;28;20106;-78
2023/02/23 02:29:12;;;;;;;83.55;47.33;;;;;;;6.68;100.00;101116.63;5071956;28;20535;-81
2023/02/23 02:32:09;;;;;;;81.25;45.83;;;;;;;6.65;100.00;101129.69;5072237;28;20101;-84
2023/02/23 02:34:54;;;;;;;83.80;47.03;;;;;;;6.60;100.00;101128.72;5071901;28;20021;-82
2023/02/23 02:37:46;;;;;;;86.28;47.25;;;;;;;6.58;100.00;101123.41;5074142;28;20036;-78
2023/02/23 02:40:31;;;;;;;84.60;48.10;;;;;;;6.57;100.00;101126.00;5045647;28;20056;-80
2023/02/23 02:43:13;;;;;;;80.93;47.33;;;;;;;6.52;100.00;101123.25;5070674;28;20389;-77
2023/02/23 02:45:46;;;;;;;90.93;47.40;;;;;;;6.50;100.00;101129.31;5072286;28;20028;-80
2023/02/23 02:48:19;;;;;;;89.35;47.45;;;;;;;6.53;100.00;101126.78;5073755;28;20170;-80
2023/02/23 02:50:54;;;;;;;89.93;48.75;;;;;;;6.51;100.00;101124.13;5073674;28;20071;-82
2023/02/23 02:53:28;;;;;;;91.53;48.50;;;;;;;6.52;100.00;101125.00;5073650;28;20074;-78
2023/02/23 02:55:58;;;;;;;91.28;49.95;;;;;;;6.49;100.00;101128.41;5069846;28;20078;-80
2023/02/23 02:58:26;;;;;;;89.80;48.70;;;;;;;6.47;100.00;101119.63;5069686;28;20044;-80
2023/02/23 04:19:00;;;;;;;100.65;51.53;;;;;;;6.21;100.00;101159.19;5072622;28;20041;-79
2023/02/23 04:21:25;;;;;;;99.03;50.78;;;;;;;6.24;100.00;101161.03;5072426;28;20491;-80
2023/02/23 04:23:51;;;;;;;106.43;52.42;;;;;;;6.22;100.00;101166.25;5071552;28;20071;-79
2023/02/23 04:26:16;;;;;;;105.55;51.20;;;;;;;6.18;100.00;101161.75;5072295;28;20434;-80
2023/02/23 04:28:41;;;;;;;98.85;49.65;;;;;;;6.21;100.00;101160.94;5072252;28;20033;-78
2023/02/23 04:31:07;;;;;;;101.20;52.03;;;;;;;6.22;100.00;101161.00;5072694;28;20063;-79
2023/02/23 04:33:32;;;;;;;103.80;52.78;;;;;;;6.24;100.00;101163.66;5072247;28;20055;-80
2023/02/23 04:35:57;;;;;;;98.75;50.90;;;;;;;6.22;100.00;101162.75;5072155;28;20036;-78
2023/02/23 04:38:23;;;;;;;99.78;49.75;;;;;;;6.21;100.00;101166.19;5075649;28;20027;-79
2023/02/23 04:40:49;;;;;;;101.18;51.30;;;;;;;6.23;100.00;101168.03;5075038;28;20467;-80
2023/02/23 04:43:14;;;;;;;101.53;51.08;;;;;;;6.20;100.00;101160.03;5076073;28;20075;-77
2023/02/23 04:45:40;;;;;;;101.53;50.72;;;;;;;6.19;100.00;101170.50;5076334;28;20426;-78
2023/02/23 04:48:06;;;;;;;101.47;50.88;;;;;;;6.20;100.00;101167.91;5076036;28;20047;-82
2023/02/23 04:50:32;;;;;;;99.93;50.85;;;;;;;6.21;100.00;101171.44;5076209;28;20028;-79
2023/02/23 04:52:58;;;;;;;99.60;49.60;;;;;;;6.18;100.00;101168.75;5075987;28;20051;-77
2023/02/23 04:55:24;;;;;;;105.43;51.50;;;;;;;6.20;100.00;101174.91;5074693;28;20111;-78
2023/02/23 04:57:50;;;;;;;97.38;49.45;;;;;;;6.17;100.00;101173.09;5074841;28;20398;-78
2023/02/23 05:00:17;;;;;;;99.72;50.33;;;;;;;6.16;100.00;101168.72;5075890;28;20039;-79
2023/02/23 05:02:43;;;;;;;95.35;49.50;;;;;;;6.15;100.00;101173.91;5075700;28;20048;-79
2023/02/23 05:05:09;;;;;;;96.18;49.92;;;;;;;6.15;100.00;101174.78;5075816;28;20108;-80
2023/02/23 05:07:35;;;;;;;96.47;48.83;;;;;;;6.12;100.00;101174.72;5075546;28;20103;-79
2023/02/23 05:10:01;;;;;;;94.47;48.00;;;;;;;6.13;100.00;101173.88;5075617;28;20146;-79
2023/02/23 05:12:26;;;;;;;98.88;49.97;;;;;;;6.11;100.00;101173.81;5075820;28;20119;-78
2023/02/23 05:14:51;;;;;;;97.88;49.85;;;;;;;6.09;100.00;101170.25;5075561;28;20025;-78
2023/02/23 05:17:17;;;;;;;95.97;48.30;;;;;;;6.10;100.00;101176.38;5075204;28;20055;-79
2023/02/23 05:19:42;;;;;;;96.22;47.85;;;;;;;6.12;100.00;101177.34;5075608;28;20527;-78
2023/02/23 05:22:11;;;;;;;97.45;48.97;;;;;;;6.08;100.00;101180.72;5075665;28;20039;-78
2023/02/23 05:24:40;;;;;;;96.90;48.65;;;;;;;6.05;100.00;101183.25;5075362;28;20035;-79
2023/02/23 05:27:06;;;;;;;99.10;48.83;;;;;;;6.04;100.00;101184.09;5075560;28;20033;-79
2023/02/23 05:29:32;;;;;;;103.63;49.65;;;;;;;6.02;100.00;101184.06;5075302;28;20038;-79
2023/02/23 05:31:57;;;;;;;103.55;49.58;;;;;;;6.01;100.00;101182.25;5075366;28;20025;-78
2023/02/23 05:34:23;;;;;;;100.40;49.20;;;;;;;6.02;100.00;101188.44;5075356;28;20090;-79
2023/02/23 05:36:48;;;;;;;102.18;48.45;;;;;;;5.99;100.00;101188.34;5075160;28;20029;-79
2023/02/23 05:39:13;;;;;;;109.22;50.47;;;;;;;5.97;100.00;101192.59;5075072;28;20026;-79
2023/02/23 05:41:39;;;;;;;100.47;49.88;;;;;;;5.98;100.00;101194.44;5075285;28;20430;-79
2023/02/23 05:44:04;;;;;;;99.32;49.17;;;;;;;5.99;100.00;101188.34;5075399;28;20044;-79
2023/02/23 05:46:29;;;;;;;98.43;48.67;;;;;;;6.02;100.00;101188.44;5075006;28;20032;-78
2023/02/23 05:48:58;;;;;;;106.85;49.72;;;;;;;5.98;100.00;101195.31;5074772;28;20017;-78
2023/02/23 05:51:24;;;;;;;103.97;49.78;;;;;;;5.93;100.00;101200.41;5074946;28;20030;-79
2023/02/23 05:53:50;;;;;;;105.05;49.90;;;;;;;5.91;100.00;101199.47;5073569;28;20459;-77
2023/02/23 05:56:19;;;;;;;99.15;49.28;;;;;;;5.93;100.00;101197.78;5075084;28;20059;-78
2023/02/23 05:58:50;;;;;;;104.03;50.08;;;;;;;5.89;100.00;101203.78;5074744;28;20029;-78
2023/02/23 06:01:16;;;;;;;102.28;49.47;;;;;;;5.87;100.00;101205.47;5074696;28;20099;-79
2023/02/23 06:03:43;;;;;;;100.70;49.10;;;;;;;5.89;100.00;101202.88;5074801;28;20104;-78
2023/02/23 06:06:08;;;;;;;97.57;48.42;;;;;;;5.87;100.00;101201.97;5074486;28;20033;-79
2023/02/23 06:08:34;;;;;;;99.05;48.30;;;;;;;5.89;100.00;101205.50;5074505;28;20122;-79
2023/02/23 06:10:59;;;;;;;99.43;48.92;;;;;;;5.92;100.00;101198.59;5074776;28;20116;-77
2023/02/23 06:13:25;;;;;;;95.18;47.83;;;;;;;5.96;100.00;101207.47;5074629;28;20031;-77
2023/02/23 06:15:51;;;;;;;97.25;47.47;;;;;;;5.96;100.00;101203.97;5074225;28;20037;-77
2023/02/23 06:18:16;;;;;;;101.30;49.38;;;;;;;5.97;100.00;101210.97;5074544;28;20024;-77
2023/02/23 06:20:42;;;;;;;97.65;47.42;;;;;;;5.93;100.00;101208.25;5074361;28;20029;-77
2023/02/23 06:23:08;;;;;;;97.82;48.40;;;;;;;5.91;100.00;101212.59;5074500;28;20109;-77
2023/02/23 06:25:33;;;;;;;101.15;46.92;;;;;;;5.89;100.00;101211.63;5074334;28;20032;-77
2023/02/23 06:27:58;;;;;;;92.32;46.42;;;;;;;5.92;100.00;101222.22;5074256;28;20024;-77
2023/02/23 06:30:24;;;;;;;100.35;47.47;;;;;;;5.89;100.00;101224.75;5074590;28;20452;-77
2023/02/23 06:32:49;;;;;;;96.07;47.90;;;;;;;5.92;100.00;101227.47;5074134;28;20115;-77
2023/02/23 06:35:15;;;;;;;100.32;48.03;;;;;;;5.89;100.00;101230.00;5073923;28;20036;-77
2023/02/23 06:37:40;;;;;;;103.00;49.13;;;;;;;5.91;100.00;101233.59;5072060;28;20025;-77
2023/02/23 06:40:06;;;;;;;108.28;49.15;;;;;;;5.88;100.00;101230.88;5066704;28;20380;-77
2023/02/23 06:42:33;;;;;;;100.05;47.95;;;;;;;5.91;100.00;101238.84;5067123;28;20103;-77
2023/02/23 06:44:58;;;;;;;102.65;47.47;;;;;;;5.90;100.00;101244.03;5075246;28;20066;-75
2023/02/23 06:47:23;;;;;;;96.13;46.38;;;;;;;5.88;100.00;101238.75;5072566;28;20063;-76
2023/02/23 06:49:49;;;;;;;95.50;45.60;;;;;;;5.89;100.00;101232.63;5072938;28;20062;-75
2023/02/23 06:52:14;;;;;;;97.60;46.72;;;;;;;5.91;100.00;101237.94;5065620;28;20035;-74
2023/02/23 06:54:40;;;;;;;93.22;45.83;;;;;;;5.92;100.00;101235.34;5070988;28;20032;-76
2023/02/23 06:57:07;;;;;;;95.50;45.65;;;;;;;5.92;100.00;101239.72;5067443;28;20033;-76
2023/02/23 06:59:32;;;;;;;95.22;47.38;;;;;;;5.97;100.00;101239.84;5062496;28;20474;-77
2023/02/23 07:01:58;;;;;;;100.93;47.25;;;;;;;5.96;100.00;101236.34;5068781;28;20021;-76
2023/02/23 07:04:24;;;;;;;98.90;46.30;;;;;;;5.99;100.00;101246.09;5063850;28;20039;-78
2023/02/23 07:06:50;;;;;;;100.53;46.78;;;;;;;5.94;100.00;101248.50;5069339;28;20485;-77
2023/02/23 07:09:15;;;;;;;97.10;48.00;;;;;;;5.97;100.00;101260.84;5067139;28;20119;-75
2023/02/23 07:11:43;;;;;;;100.40;48.28;;;;;;;5.98;100.00;101266.16;5066738;28;20498;-74
2023/02/23 07:14:10;;;;;;;101.32;45.72;;;;;;;5.99;100.00;101272.31;5069211;28;20562;-77
2023/02/23 07:16:36;;;;;;;103.43;48.45;;;;;;;5.99;100.00;101277.56;5068738;28;20044;-76
2023/02/23 07:19:02;;;;;;;98.13;48.20;;;;;;;5.98;100.00;101281.03;5070891;28;20479;-75
2023/02/23 07:21:30;;;;;;;99.80;47.63;;;;;;;5.98;100.00;101273.16;5070138;28;20125;-76
2023/02/23 07:23:56;;;;;;;95.65;46.83;;;;;;;6.00;100.00;101285.50;5070759;28;20027;-76
2023/02/23 07:26:22;;;;;;;102.28;47.95;;;;;;;6.00;100.00;101285.50;5066795;28;20032;-77
2023/02/23 07:28:47;;;;;;;100.72;47.22;;;;;;;6.03;100.00;101282.03;5068587;28;20036;-76
2023/02/23 07:31:12;;;;;;;99.25;47.38;;;;;;;6.08;100.00;101299.72;5067414;28;20032;-76
2023/02/23 07:33:38;;;;;;;103.47;48.58;;;;;;;6.12;100.00;101290.22;5073159;28;20099;-78
2023/02/23 07:36:03;;;;;;;97.18;46.22;;;;;;;6.13;100.00;101291.09;5064414;28;20033;-80
2023/02/23 07:38:29;;;;;;;99.15;47.17;;;;;;;6.20;100.00;101298.31;5067781;28;20040;-79
2023/02/23 07:40:54;;;;;;;99.53;47.22;;;;;;;6.19;100.00;101297.44;5071145;28;20028;-80
2023/02/23 07:43:21;;;;;;;92.57;45.55;;;;;;;6.20;100.00;101301.81;5065693;28;20074;-78
2023/02/23 07:45:47;;;;;;;94.00;46.78;;;;;;;6.27;100.00;101311.66;5066977;28;20060;-78
2023/02/23 07:48:13;;;;;;;94.65;46.67;;;;;;;6.28;100.00;101316.06;5074655;28;20509;-78
2023/02/23 07:50:39;;;;;;;94.22;47.15;;;;;;;6.28;100.00;101317.81;5073534;28;20024;-78
2023/02/23 07:53:04;;;;;;;93.97;46.83;;;;;;;6.33;100.00;101320.56;5075098;28;20021;-76
2023/02/23 07:55:30;;;;;;;90.97;46.17;;;;;;;6.31;100.00;101323.16;5064116;28;20167;-76
2023/02/23 07:57:56;;;;;;;85.78;44.50;;;;;;;6.32;100.00;101331.91;5065336;28;20024;-77
2023/02/23 08:00:22;;;;;;;86.25;44.97;;;;;;;6.37;100.00;101332.94;5071557;28;20485;-76
2023/02/23 08:02:47;;;;;;;87.45;44.58;;;;;;;6.41;100.00;101338.34;5066166;28;20032;-78
2023/02/23 08:05:12;;;;;;;88.63;45.38;;;;;;;6.50;100.00;101340.34;5068741;28;20415;-76
2023/02/23 08:07:38;;;;;;;86.35;45.13;;;;;;;6.56;100.00;101344.88;5072996;28;20025;-74
2023/02/23 08:10:03;;;;;;;84.38;44.15;;;;;;;6.62;100.00;101345.91;5072334;28;20116;-74
2023/02/23 08:12:32;;;;;;;78.43;42.53;;;;;;;6.69;100.00;101341.75;5071272;28;20031;-75
2023/02/23 08:14:57;;;;;;;83.70;43.67;;;;;;;6.73;100.00;101342.75;5073859;28;20037;-73
2023/02/23 08:17:22;;;;;;;78.80;42.72;;;;;;;6.80;100.00;101339.41;5072405;28;20039;-73
2023/02/23 08:19:48;;;;;;;75.90;41.78;;;;;;;6.89;100.00;101347.56;5070743;28;20029;-75
2023/02/23 08:22:13;;;;;;;75.20;41.85;;;;;;;6.97;100.00;101342.50;5069127;28;20078;-74
2023/02/23 08:24:39;;;;;;;77.75;42.88;;;;;;;7.09;100.00;101341.94;5070446;28;20384;-75
2023/02/23 08:27:04;;;;;;;75.68;41.35;;;;;;;7.18;100.00;101346.56;5068928;28;20361;-75
2023/02/23 08:29:30;;;;;;;76.25;42.22;;;;;;;7.27;100.00;101357.34;5070646;28;20494;-75
2023/02/23 08:31:56;;;;;;;75.25;41.75;;;;;;;7.33;100.00;101355.72;5065474;28;20039;-75
2023/02/23 08:34:21;;;;;;;71.40;40.75;;;;;;;7.42;100.00;101356.81;5070608;28;20119;-75
2023/02/23 08:36:47;;;;;;;70.80;41.10;;;;;;;7.52;100.00;101358.84;5073599;28;20107;-76
2023/02/23 08:39:13;;;;;;;68.13;40.58;;;;;;;7.58;100.00;101366.88;5071724;28;20068;-75
2023/02/23 08:41:39;;;;;;;68.13;39.50;;;;;;;7.53;100.00;101360.63;5065393;28;20033;-77
2023/02/23 08:44:05;;;;;;;69.13;40.88;;;;;;;7.56;100.00;101368.59;5070662;28;20052;-78
2023/02/23 08:46:31;;;;;;;69.72;39.30;;;;;;;7.57;100.00;101372.09;5072073;28;20087;-77
2023/02/23 08:48:57;;;;;;;65.88;38.30;;;;;;;7.59;100.00;101375.69;5066890;28;20082;-76
2023/02/23 08:51:22;;;;;;;65.38;37.88;;;;;;;7.58;100.00;101373.88;5069130;28;20025;-77
2023/02/23 08:53:48;;;;;;;64.00;37.92;;;;;;;7.55;100.00;101372.06;5070888;28;20028;-78
2023/02/23 08:56:14;;;;;;;65.35;39.25;;;;;;;7.55;100.00;101376.44;5072149;28;20108;-78
2023/02/23 08:58:40;;;;;;;64.95;38.92;;;;;;;7.54;100.00;101382.56;5071960;28;20040;-77
2023/02/23 09:01:05;;;;;;;67.18;38.45;;;;;;;7.53;100.00;101391.28;5071991;28;20025;-77
2023/02/23 09:03:34;;;;;;;63.85;38.00;;;;;;;7.47;100.00;101385.03;5072415;28;20028;-76
2023/02/23 09:06:10;;;;;;;63.92;37.88;;;;;;;7.47;100.00;101384.13;5068320;28;20047;-76
2023/02/23 09:08:35;;;;;;;61.78;37.28;;;;;;;7.42;100.00;101384.00;5067626;28;20032;-77
2023/02/23 09:11:01;;;;;;;63.70;37.28;;;;;;;7.42;100.00;101388.41;5072182;28;20029;-77
2023/02/23 09:13:26;;;;;;;62.60;37.63;;;;;;;7.43;100.00;101396.31;5072124;28;20082;-78
2023/02/23 09:15:53;;;;;;;60.60;36.53;;;;;;;7.39;100.00;101390.94;5062164;28;20037;-75
2023/02/23 09:18:18;;;;;;;63.38;36.90;;;;;;;7.46;100.00;101393.78;5064538;28;20144;-75
2023/02/23 09:20:44;;;;;;;63.67;37.15;;;;;;;7.42;100.00;101389.28;5061991;28;20504;-75
2023/02/23 09:23:11;;;;;;;61.75;37.53;;;;;;;7.44;100.00;101403.38;5070001;28;20127;-75
2023/02/23 09:25:43;;;;;;;61.72;37.75;;;;;;;7.42;100.00;101401.53;5070038;28;20029;-76
2023/02/23 09:28:19;;;;;;;62.17;39.38;;;;;;;7.46;100.00;101406.91;5064530;28;20116;-76
2023/02/23 09:30:45;;;;;;;63.58;39.00;;;;;;;7.42;100.00;101414.69;5070646;28;20024;-76
2023/02/23 09:33:11;;;;;;;63.90;38.75;;;;;;;7.46;100.00;101416.56;5069523;28;20545;-77
2023/02/23 09:35:36;;;;;;;61.95;37.80;;;;;;;7.49;100.00;101416.66;5067109;28;20115;-76
2023/02/23 09:38:05;;;;;;;61.83;38.90;;;;;;;7.53;100.00;101420.22;5075046;28;20165;-77
2023/02/23 09:40:43;;;;;;;64.68;39.53;;;;;;;7.52;100.00;101413.22;5073705;28;20440;-78
2023/02/23 09:43:18;;;;;;;59.83;37.28;;;;;;;7.63;100.00;101412.63;5070506;28;20028;-77
2023/02/23 09:45:52;;;;;;;55.67;36.42;;;;;;;7.72;100.00;101418.94;5074507;28;20024;-77
2023/02/23 09:48:23;;;;;;;58.65;36.70;;;;;;;7.84;100.00;101424.53;5073492;28;20083;-77
2023/02/23 09:50:54;;;;;;;56.38;35.58;;;;;;;7.91;100.00;101421.22;5071868;28;20047;-77
2023/02/23 09:53:34;;;;;;;56.42;36.20;;;;;;;8.05;100.00;101423.28;5064769;28;20382;-81
2023/02/23 09:56:05;;;;;;;54.65;35.63;;;;;;;8.11;100.00;101421.69;5073061;28;20542;-78
2023/02/23 09:58:33;;;;;;;51.83;33.70;;;;;;;8.19;100.00;101427.13;5070822;28;20066;-78
2023/02/23 10:01:08;;;;;;;53.50;34.05;;;;;;;8.27;100.00;101430.84;5076022;28;20478;-79
2023/02/23 10:03:38;;;;;;;53.55;33.67;;;;;;;8.31;100.00;101427.41;5070653;28;20064;-81
2023/02/23 10:06:10;;;;;;;52.05;32.85;;;;;;;8.26;100.00;101429.06;5074744;28;20119;-78
2023/02/23 10:08:45;;;;;;;51.72;33.92;;;;;;;8.10;100.00;101421.66;5074777;28;20049;-81
2023/02/23 10:11:25;;;;;;;53.10;33.05;;;;;;;7.99;100.00;101432.81;5074737;28;20048;-79
2023/02/23 10:14:03;;;;;;;52.47;31.27;;;;;;;7.94;100.00;101431.81;5071616;28;20024;-78
2023/02/23 10:16:50;;;;;;;53.13;33.38;;;;;;;7.92;100.00;101432.63;5074411;28;20449;-82
2023/02/23 10:19:26;;;;;;;52.00;32.47;;;;;;;7.97;100.00;101429.25;5070468;28;20578;-81
2023/02/23 10:22:00;;;;;;;52.05;32.40;;;;;;;8.03;100.00;101428.50;5071674;28;20107;-78
2023/02/23 10:24:35;;;;;;;51.53;32.35;;;;;;;8.13;100.00;101432.25;5074374;28;20116;-78
2023/02/23 10:27:13;;;;;;;51.30;32.25;;;;;;;8.26;100.00;101439.59;5074174;28;20082;-78
2023/02/23 10:29:50;;;;;;;52.13;32.35;;;;;;;8.42;100.00;101435.56;5074411;28;20029;-79
2023/02/23 10:32:39;;;;;;;50.75;31.48;;;;;;;8.63;100.00;101424.63;5070545;28;20451;-78
2023/02/23 10:35:15;;;;;;;49.13;30.42;;;;;;;8.91;100.00;101425.19;5073009;28;20533;-77
2023/02/23 10:37:41;;;;;;;48.53;31.90;;;;;;;9.16;100.00;101423.06;5074228;28;20032;-78
2023/02/23 10:40:12;;;;;;;50.90;31.08;;;;;;;9.25;100.00;101425.88;5073970;28;20098;-78
2023/02/23 10:42:38;;;;;;;49.42;30.58;;;;;;;9.31;100.00;101431.28;5072806;28;20028;-79
2023/02/23 10:45:21;;;;;;;48.25;30.65;;;;;;;9.35;100.00;101433.13;5074022;28;20036;-78
2023/02/23 10:47:50;;;;;;;47.67;30.63;;;;;;;9.23;100.00;101438.16;5070419;28;20033;-78
2023/02/23 10:50:16;;;;;;;48.33;30.63;;;;;;;9.16;100.00;101441.53;5069989;28;20116;-79
2023/02/23 10:52:46;;;;;;;49.00;31.70;;;;;;;9.19;100.00;101442.50;5073741;28;20430;-79
2023/02/23 10:55:24;;;;;;;49.70;31.48;;;;;;;9.20;100.00;101440.72;5073947;28;20029;-80
2023/02/23 10:57:59;;;;;;;48.45;31.10;;;;;;;8.98;100.00;101431.50;5070393;28;20028;-79
2023/02/23 11:00:29;;;;;;;49.58;32.58;;;;;;;8.74;100.00;101438.06;5072349;28;20384;-78
2023/02/23 11:02:57;;;;;;;49.20;32.47;;;;;;;8.60;100.00;101440.38;5073500;28;20028;-80
2023/02/23 11:05:50;;;;;;;50.83;32.42;;;;;;;8.51;100.00;101446.34;5073551;28;20020;-79
2023/02/23 11:08:15;;;;;;;;;;;;;;;8.59;100.00;101453.53;5070138;28;20024;-78
2023/02/23 11:10:41;;;;;;;51.33;32.80;;;;;;;8.29;100.00;101454.59;5073596;28;20006;-79
2023/02/23 11:13:20;;;;;;;51.30;33.70;;;;;;;8.25;100.00;101453.59;5073272;28;20323;-79
2023/02/23 11:15:46;;;;;;;49.95;32.67;;;;;;;8.29;100.00;101450.19;5069426;28;20060;-82
2023/02/23 11:18:21;;;;;;;51.85;33.20;;;;;;;8.41;100.00;101457.50;5073230;28;20076;-79
2023/02/23 11:20:47;;;;;;;52.80;32.40;;;;;;;8.59;100.00;101448.25;5069715;28;20378;-77
2023/02/23 11:23:28;;;;;;;52.40;32.50;;;;;;;8.73;100.00;101450.31;5073226;28;20029;-75
2023/02/23 11:26:01;;;;;;;49.70;31.55;;;;;;;8.83;100.00;101443.50;5070267;28;20021;-81
2023/02/23 11:28:29;;;;;;;;;;;;;;;9.14;100.00;101444.13;5073474;28;20378;-77
2023/02/23 11:31:17;;;;;;;48.80;30.30;;;;;;;9.22;100.00;101441.66;5073215;28;19948;-76
2023/02/23 11:33:43;;;;;;;47.63;29.80;;;;;;;9.23;100.00;101443.41;5071269;28;20029;-76
2023/02/23 11:36:30;;;;;;;44.10;26.92;;;;;;;9.25;100.00;101447.00;5072505;28;20034;-77
2023/02/23 11:39:00;;;;;;;40.15;24.85;;;;;;;9.14;100.00;101441.50;5072463;28;20036;-75
2023/02/23 11:41:26;;;;;;;39.63;23.92;;;;;;;9.17;100.00;101440.66;5071154;28;20020;-75
2023/02/23 11:43:56;;;;;;;40.33;24.45;;;;;;;9.25;100.00;101428.53;5072828;28;20039;-76
2023/02/23 11:46:24;;;;;;;40.35;24.10;;;;;;;9.25;100.00;101432.03;5072136;28;20025;-75
2023/02/23 11:48:55;;;;;;;41.67;25.00;;;;;;;9.29;100.00;101434.75;5072653;28;20024;-76
2023/02/23 11:51:34;;;;;;;38.42;23.27;;;;;;;9.34;100.00;101441.88;5072680;28;20499;-75
2023/02/23 11:54:02;;;;;;;38.80;22.92;;;;;;;9.35;100.00;101435.75;5069037;28;20021;-75
2023/02/23 11:56:29;;;;;;;38.90;23.63;;;;;;;9.42;100.00;101437.66;5072719;28;20033;-76
2023/02/23 11:59:00;;;;;;;39.03;22.70;;;;;;;9.59;100.00;101437.94;5071392;28;20112;-75
2023/02/23 12:01:40;;;;;;;38.33;22.50;;;;;;;9.62;100.00;101447.66;5072544;28;20063;-75
2023/02/23 12:04:06;;;;;;;37.60;22.05;;;;;;;9.57;100.00;101444.94;5068323;28;20028;-76
2023/02/23 12:06:40;;;;;;;37.30;21.92;;;;;;;9.51;100.00;101439.56;5072425;28;20032;-75
2023/02/23 12:09:19;;;;;;;36.63;20.67;;;;;;;9.53;100.00;101435.19;5069315;28;20112;-76
2023/02/23 12:11:50;;;;;;;36.97;20.77;;;;;;;9.45;100.00;101422.72;5072447;28;20412;-76
2023/02/23 12:14:22;;;;;;;37.35;21.45;;;;;;;9.52;100.00;101414.97;5072520;28;20025;-75
2023/02/23 12:16:54;;;;;;;37.63;22.13;;;;;;;9.67;100.00;101413.41;5072587;28;20527;-75
2023/02/23 12:19:25;;;;;;;37.35;21.65;;;;;;;9.89;100.00;101414.69;5072247;28;20083;-75
2023/02/23 12:22:10;;;;;;;35.92;19.85;;;;;;;10.02;100.00;101407.84;5072363;28;20074;-76
2023/02/23 12:24:49;;;;;;;34.35;19.48;;;;;;;9.95;100.00;101407.75;5069239;28;20066;-76
2023/02/23 12:27:15;;;;;;;35.58;20.45;;;;;;;9.71;100.00;101408.25;5072296;28;20486;-75
2023/02/23 12:29:47;;;;;;;34.83;19.67;;;;;;;9.64;100.00;101408.09;5072535;28;20471;-76
2023/02/23 12:32:20;;;;;;;33.78;18.73;;;;;;;9.69;100.00;101409.06;5072208;28;20047;-75
2023/02/23 12:34:51;;;;;;;33.85;18.15;;;;;;;9.84;100.00;101416.34;5072242;28;20107;-76
2023/02/23 12:37:27;;;;;;;32.95;18.27;;;;;;;10.01;100.00;101420.16;5072127;28;20082;-76